Time;durP1;ratioP1;P1;durP2;ratioP2;P2;SDS_P1;SDS_P2;PMS_P1;PMS_P2;Temp;Humidity;BMP_temperature;BMP_pressure;BME280_temperature;BME280_humidity;BME280_pressure;Samples;Min_cycle;Max_cycle;Signal;HPM_P1;HPM_P2
2021/01/16 00:01:47;;;;;;;24.23;12.03;;;;;;;;;;5082197;28;20480;-58
2021/01/16 00:04:13;;;;;;;25.27;10.57;;;;;;;;;;5079472;28;20150;-58
2021/01/16 00:06:38;;;;;;;29.73;11.77;;;;;;;;;;5082208;28;20107;-57
2021/01/16 00:09:03;;;;;;;24.43;11.60;;;;;;;;;;5081839;28;20642;-57
2021/01/16 00:11:29;;;;;;;26.00;11.87;;;;;;;;;;5081369;28;20021;-58
2021/01/16 00:13:54;;;;;;;24.10;11.10;;;;;;;;;;5082241;28;20074;-57
2021/01/16 00:16:20;;;;;;;27.07;12.50;;;;;;;;;;5079510;28;20273;-56
2021/01/16 00:18:45;;;;;;;24.80;11.60;;;;;;;;;;5080482;28;20051;-58
2021/01/16 00:21:11;;;;;;;24.00;12.00;;;;;;;;;;5082140;28;20089;-55
2021/01/16 00:23:36;;;;;;;23.07;11.23;;;;;;;;;;5081973;28;20396;-57
2021/01/16 00:26:01;;;;;;;27.80;12.80;;;;;;;;;;5080057;28;20028;-57
2021/01/16 00:28:30;;;;;;;25.97;13.20;;;;;;;;;;5082569;28;20059;-57
2021/01/16 00:30:55;;;;;;;29.63;13.15;;;;;;;;;;5081349;28;20035;-58
2021/01/16 00:33:23;;;;;;;28.67;12.90;;;;;;;;;;5079906;28;20041;-58
2021/01/16 00:35:49;;;;;;;27.40;11.55;;;;;;;;;;5079121;28;20052;-58
2021/01/16 00:38:14;;;;;;;23.42;11.63;;;;;;;;;;5081599;28;20051;-57
2021/01/16 00:40:40;;;;;;;24.92;10.65;;;;;;;;;;5073475;28;20072;-58
2021/01/16 00:43:09;;;;;;;27.30;11.00;;;;;;;;;;5071367;28;20509;-57
2021/01/16 00:45:35;;;;;;;21.35;10.75;;;;;;;;;;5072078;28;20457;-57
2021/01/16 00:48:07;;;;;;;22.20;10.30;;;;;;;;;;5086169;28;20150;-57
2021/01/16 00:50:33;;;;;;;22.73;10.60;;;;;;;;;;5074078;28;20273;-58
2021/01/16 00:52:59;;;;;;;27.15;12.30;;;;;;;;;;5091534;28;20137;-58
2021/01/16 00:55:31;;;;;;;24.38;10.77;;;;;;;;;;5094946;28;20036;-58
2021/01/16 00:57:57;;;;;;;24.02;10.25;;;;;;;;;;5094488;28;20035;-56
2021/01/16 01:00:28;;;;;;;24.83;11.38;;;;;;;;;;5094910;28;20051;-56
2021/01/16 01:02:55;;;;;;;21.83;11.80;;;;;;;;;;5077058;28;20036;-57
2021/01/16 01:05:22;;;;;;;23.17;10.63;;;;;;;;;;5096068;28;20028;-57
2021/01/16 01:07:48;;;;;;;22.58;10.20;;;;;;;;;;5095929;28;20058;-57
2021/01/16 01:10:14;;;;;;;22.95;11.00;;;;;;;;;;5094097;28;20027;-58
2021/01/16 01:12:39;;;;;;;18.98;9.63;;;;;;;;;;5094563;28;20040;-56
2021/01/16 01:15:06;;;;;;;25.73;11.27;;;;;;;;;;5095196;28;20035;-58
2021/01/16 01:17:31;;;;;;;22.70;11.60;;;;;;;;;;5095857;28;20039;-58
2021/01/16 01:19:56;;;;;;;25.00;11.57;;;;;;;;;;5094849;28;20035;-58
2021/01/16 01:22:22;;;;;;;21.73;10.97;;;;;;;;;;5095744;28;20476;-59
2021/01/16 01:24:47;;;;;;;26.37;11.10;;;;;;;;;;5095566;28;20471;-58
2021/01/16 01:27:12;;;;;;;19.63;9.03;;;;;;;;;;5096784;28;20040;-58
2021/01/16 01:29:38;;;;;;;26.27;11.83;;;;;;;;;;5097781;28;20028;-57
2021/01/16 01:32:03;;;;;;;25.80;13.67;;;;;;;;;;5095585;28;20028;-57
2021/01/16 01:34:29;;;;;;;31.03;12.97;;;;;;;;;;5094272;28;20105;-56
2021/01/16 01:36:54;;;;;;;24.77;11.90;;;;;;;;;;5095679;28;20050;-57
2021/01/16 01:39:19;;;;;;;29.73;12.50;;;;;;;;;;5096434;28;20024;-57
2021/01/16 01:41:45;;;;;;;30.40;12.83;;;;;;;;;;5095088;28;20479;-57
2021/01/16 01:44:10;;;;;;;25.10;11.50;;;;;;;;;;5094489;28;20043;-57
2021/01/16 01:46:36;;;;;;;25.67;13.53;;;;;;;;;;5077157;28;20459;-57
2021/01/16 01:49:03;;;;;;;25.80;11.77;;;;;;;;;;5094551;28;20380;-58
2021/01/16 01:51:30;;;;;;;23.67;12.30;;;;;;;;;;5094946;28;20031;-57
2021/01/16 01:53:57;;;;;;;25.02;11.35;;;;;;;;;;5094068;28;20032;-58
2021/01/16 01:56:24;;;;;;;28.17;13.68;;;;;;;;;;5093960;28;20063;-57
2021/01/16 01:58:51;;;;;;;26.30;13.57;;;;;;;;;;5095039;28;20024;-57
2021/01/16 02:01:17;;;;;;;29.88;13.82;;;;;;;;;;5092961;28;20038;-57
2021/01/16 02:03:44;;;;;;;28.20;14.27;;;;;;;;;;5094553;28;20426;-57
2021/01/16 02:06:09;;;;;;;25.40;13.35;;;;;;;;;;5093295;28;20063;-56
2021/01/16 02:08:34;;;;;;;27.63;13.07;;;;;;;;;;5094751;28;20087;-57
2021/01/16 02:11:00;;;;;;;23.03;11.53;;;;;;;;;;5092612;28;20107;-55
2021/01/16 02:13:25;;;;;;;27.67;11.60;;;;;;;;;;5093333;28;20028;-58
2021/01/16 02:15:54;;;;;;;22.60;9.53;;;;;;;;;;5093266;28;20031;-57
2021/01/16 02:18:23;;;;;;;25.65;13.02;;;;;;;;;;5093671;28;20040;-57
2021/01/16 02:20:51;;;;;;;26.92;12.52;;;;;;;;;;5094538;28;20032;-58
2021/01/16 02:23:20;;;;;;;25.02;11.73;;;;;;;;;;5093443;28;20050;-57
2021/01/16 02:25:53;;;;;;;25.67;13.13;;;;;;;;;;5094129;28;20162;-56
2021/01/16 02:28:23;;;;;;;22.98;10.95;;;;;;;;;;5093531;28;20028;-58
2021/01/16 02:30:50;;;;;;;24.23;12.25;;;;;;;;;;5093282;28;20028;-57
2021/01/16 02:33:18;;;;;;;22.90;11.05;;;;;;;;;;5093693;28;20031;-57
2021/01/16 02:35:50;;;;;;;21.55;11.13;;;;;;;;;;5094131;28;20028;-57
2021/01/16 02:38:22;;;;;;;20.75;10.93;;;;;;;;;;5093837;28;20482;-57
2021/01/16 02:40:52;;;;;;;27.75;10.70;;;;;;;;;;5094687;28;20069;-57
2021/01/16 02:43:33;;;;;;;24.98;12.55;;;;;;;;;;5093474;28;20240;-58
2021/01/16 02:46:16;;;;;;;28.17;11.93;;;;;;;;;;5093615;28;20024;-58
2021/01/16 02:48:48;;;;;;;25.10;12.27;;;;;;;;;;5094212;28;20028;-57
2021/01/16 02:51:19;;;;;;;30.38;12.88;;;;;;;;;;5093731;28;20036;-58
2021/01/16 02:53:44;;;;;;;21.90;11.15;;;;;;;;;;5093861;28;20475;-57
2021/01/16 02:56:14;;;;;;;24.27;12.53;;;;;;;;;;5093203;28;20055;-59
2021/01/16 02:58:40;;;;;;;27.60;12.80;;;;;;;;;;5094070;28;20097;-57
2021/01/16 03:01:05;;;;;;;30.87;11.40;;;;;;;;;;5093070;28;20016;-57
2021/01/16 03:03:31;;;;;;;23.40;11.20;;;;;;;;;;5093365;28;20059;-58
2021/01/16 03:05:56;;;;;;;19.48;8.95;;;;;;;;;;5093838;28;20028;-58
2021/01/16 03:08:22;;;;;;;23.37;11.00;;;;;;;;;;5091974;28;20085;-58
2021/01/16 03:10:48;;;;;;;26.83;11.38;;;;;;;;;;5093851;28;20038;-58
2021/01/16 03:13:13;;;;;;;22.13;11.32;;;;;;;;;;5091581;28;20074;-57
2021/01/16 03:15:39;;;;;;;25.30;12.65;;;;;;;;;;5093343;28;20024;-58
2021/01/16 03:18:07;;;;;;;23.63;11.63;;;;;;;;;;5092939;28;20379;-58
2021/01/16 03:20:32;;;;;;;28.25;12.07;;;;;;;;;;5092627;28;20305;-58
2021/01/16 03:22:59;;;;;;;21.73;11.00;;;;;;;;;;5093431;28;20464;-57
2021/01/16 03:25:26;;;;;;;26.38;11.75;;;;;;;;;;5092550;28;20032;-57
2021/01/16 03:27:51;;;;;;;23.80;12.55;;;;;;;;;;5093419;28;20486;-56
2021/01/16 03:30:17;;;;;;;20.48;10.45;;;;;;;;;;5092710;28;20038;-57
2021/01/16 03:32:43;;;;;;;26.98;12.07;;;;;;;;;;5092996;28;20089;-56
2021/01/16 03:35:09;;;;;;;25.13;10.73;;;;;;;;;;5092525;28;20063;-57
2021/01/16 03:37:35;;;;;;;24.65;12.25;;;;;;;;;;5093203;28;20133;-57
2021/01/16 03:40:01;;;;;;;23.10;11.33;;;;;;;;;;5093319;28;20036;-57
2021/01/16 03:42:26;;;;;;;22.20;11.53;;;;;;;;;;5091262;28;20268;-57
2021/01/16 03:44:51;;;;;;;28.23;11.37;;;;;;;;;;5093113;28;20032;-58
2021/01/16 03:47:17;;;;;;;23.83;11.50;;;;;;;;;;5092234;28;20032;-57
2021/01/16 03:49:42;;;;;;;25.17;11.97;;;;;;;;;;5086707;28;20387;-56
2021/01/16 03:52:07;;;;;;;24.03;12.13;;;;;;;;;;5071985;28;20032;-56
2021/01/16 03:54:33;;;;;;;27.87;10.97;;;;;;;;;;5071189;28;20029;-57
2021/01/16 03:56:58;;;;;;;28.67;12.43;;;;;;;;;;5072708;28;20037;-55
2021/01/16 03:59:24;;;;;;;27.20;12.00;;;;;;;;;;5071764;28;20095;-58
2021/01/16 04:01:49;;;;;;;25.37;11.63;;;;;;;;;;5071145;28;20035;-55
2021/01/16 04:04:14;;;;;;;23.90;12.00;;;;;;;;;;5079858;28;20055;-57
2021/01/16 04:06:40;;;;;;;22.37;11.77;;;;;;;;;;5082787;28;20029;-57
2021/01/16 04:09:05;;;;;;;23.37;12.43;;;;;;;;;;5071608;28;20496;-57
2021/01/16 04:11:32;;;;;;;25.27;13.13;;;;;;;;;;5072444;28;20043;-58
2021/01/16 04:13:57;;;;;;;21.10;10.88;;;;;;;;;;5072601;28;20399;-62
2021/01/16 04:16:25;;;;;;;28.60;12.77;;;;;;;;;;5071906;28;20487;-58
2021/01/16 04:18:50;;;;;;;22.88;12.35;;;;;;;;;;5072164;28;20024;-58
2021/01/16 04:21:16;;;;;;;26.67;13.23;;;;;;;;;;5071858;28;20035;-58
2021/01/16 04:23:41;;;;;;;19.73;9.63;;;;;;;;;;5070884;28;20060;-59
2021/01/16 04:26:06;;;;;;;28.00;12.90;;;;;;;;;;5072098;28;20067;-59
2021/01/16 04:28:32;;;;;;;26.08;12.98;;;;;;;;;;5074414;28;20062;-59
2021/01/16 04:30:57;;;;;;;27.27;13.47;;;;;;;;;;5078811;28;20035;-58
2021/01/16 04:33:23;;;;;;;27.23;14.00;;;;;;;;;;5060237;28;20052;-58
2021/01/16 04:35:48;;;;;;;25.40;14.67;;;;;;;;;;5079193;28;20033;-58
2021/01/16 04:38:14;;;;;;;24.63;13.43;;;;;;;;;;5078348;28;20028;-59
2021/01/16 04:40:39;;;;;;;29.67;13.80;;;;;;;;;;5078906;28;20031;-58
2021/01/16 04:43:05;;;;;;;24.90;13.37;;;;;;;;;;5077615;28;20064;-57
2021/01/16 04:45:31;;;;;;;27.23;13.02;;;;;;;;;;5078224;28;20318;-59
2021/01/16 04:47:58;;;;;;;29.75;14.80;;;;;;;;;;5086635;28;20084;-57
2021/01/16 04:50:26;;;;;;;33.17;15.48;;;;;;;;;;5098321;28;20032;-57
2021/01/16 04:52:54;;;;;;;31.65;15.00;;;;;;;;;;5099027;28;20039;-58
2021/01/16 04:55:20;;;;;;;27.05;14.23;;;;;;;;;;5098486;28;20056;-57
2021/01/16 04:57:45;;;;;;;25.73;13.33;;;;;;;;;;5098750;28;20140;-57
2021/01/16 05:00:12;;;;;;;30.73;13.43;;;;;;;;;;5098557;28;20127;-58
2021/01/16 05:02:39;;;;;;;24.30;12.57;;;;;;;;;;5091979;28;20288;-58
2021/01/16 05:05:05;;;;;;;24.30;11.10;;;;;;;;;;5087827;28;20044;-59
2021/01/16 05:07:31;;;;;;;23.30;12.43;;;;;;;;;;5086907;28;20035;-56
2021/01/16 05:09:58;;;;;;;20.30;10.07;;;;;;;;;;5087353;28;20020;-58
2021/01/16 05:12:42;;;;;;;27.70;11.32;;;;;;;;;;5093474;28;20514;-56
2021/01/16 05:15:08;;;;;;;22.27;11.68;;;;;;;;;;5099486;28;20032;-58
2021/01/16 05:17:41;;;;;;;26.90;12.32;;;;;;;;;;5097611;28;20446;-60
2021/01/16 05:20:09;;;;;;;24.75;12.23;;;;;;;;;;5099932;28;20024;-57
2021/01/16 05:22:34;;;;;;;25.65;12.88;;;;;;;;;;5099067;28;20034;-58
2021/01/16 05:25:01;;;;;;;28.67;13.17;;;;;;;;;;5098772;28;20531;-58
2021/01/16 05:27:31;;;;;;;23.88;12.38;;;;;;;;;;5099700;28;20032;-58
2021/01/16 05:29:59;;;;;;;27.60;13.63;;;;;;;;;;5100459;28;20069;-57
2021/01/16 05:32:25;;;;;;;22.75;12.15;;;;;;;;;;5097264;28;20476;-58
2021/01/16 05:34:50;;;;;;;28.60;12.67;;;;;;;;;;5097323;28;20083;-56
2021/01/16 05:37:16;;;;;;;29.00;14.37;;;;;;;;;;5098088;28;20028;-57
2021/01/16 05:39:42;;;;;;;29.77;13.90;;;;;;;;;;5097080;28;20803;-57
2021/01/16 05:42:08;;;;;;;31.52;13.95;;;;;;;;;;5095092;28;20074;-57
2021/01/16 05:44:33;;;;;;;24.63;14.30;;;;;;;;;;5094836;28;20031;-58
2021/01/16 05:46:58;;;;;;;30.57;12.97;;;;;;;;;;5094157;28;20060;-58
2021/01/16 05:49:25;;;;;;;27.33;12.20;;;;;;;;;;5093454;28;20117;-58
2021/01/16 05:51:51;;;;;;;35.97;13.68;;;;;;;;;;5095064;28;20479;-57
2021/01/16 05:54:17;;;;;;;28.05;13.15;;;;;;;;;;5094580;28;20028;-56
2021/01/16 05:56:43;;;;;;;29.77;13.35;;;;;;;;;;5095257;28;20162;-58
2021/01/16 05:59:10;;;;;;;30.85;14.40;;;;;;;;;;5094908;28;20594;-56
2021/01/16 06:01:37;;;;;;;27.58;13.85;;;;;;;;;;5094268;28;20104;-57
2021/01/16 06:04:03;;;;;;;25.52;13.15;;;;;;;;;;5094710;28;20048;-57
2021/01/16 06:06:31;;;;;;;26.50;12.43;;;;;;;;;;5094412;28;20047;-57
2021/01/16 06:08:56;;;;;;;28.95;13.45;;;;;;;;;;5093848;28;20028;-56
2021/01/16 06:11:22;;;;;;;29.37;13.30;;;;;;;;;;5094379;28;20043;-58
2021/01/16 06:13:49;;;;;;;27.95;14.13;;;;;;;;;;5094870;28;20498;-56
2021/01/16 06:16:16;;;;;;;29.75;14.88;;;;;;;;;;5094735;28;20028;-57
2021/01/16 06:18:57;;;;;;;28.48;12.48;;;;;;;;;;5094403;28;20051;-58
2021/01/16 06:21:29;;;;;;;31.58;14.70;;;;;;;;;;5094070;28;20467;-56
2021/01/16 06:23:55;;;;;;;29.63;13.52;;;;;;;;;;5094511;28;20479;-58
2021/01/16 06:26:21;;;;;;;29.95;14.18;;;;;;;;;;5092678;28;20028;-56
2021/01/16 06:29:00;;;;;;;28.55;14.98;;;;;;;;;;5094650;28;20437;-58
2021/01/16 06:31:26;;;;;;;34.00;14.68;;;;;;;;;;5076638;28;20058;-57
2021/01/16 06:33:56;;;;;;;27.13;13.52;;;;;;;;;;5094242;28;20028;-57
2021/01/16 06:36:25;;;;;;;29.77;14.48;;;;;;;;;;5093725;28;20028;-57
2021/01/16 06:38:55;;;;;;;28.38;13.93;;;;;;;;;;5093132;28;20055;-57
2021/01/16 06:41:26;;;;;;;30.23;13.20;;;;;;;;;;5093327;28;20111;-56
2021/01/16 06:43:52;;;;;;;28.83;13.05;;;;;;;;;;5094386;28;20040;-57
2021/01/16 06:46:18;;;;;;;23.30;12.00;;;;;;;;;;5094266;28;20442;-56
2021/01/16 06:48:43;;;;;;;26.43;12.50;;;;;;;;;;5091894;28;20067;-59
2021/01/16 06:51:10;;;;;;;24.02;12.30;;;;;;;;;;5093836;28;20028;-56
2021/01/16 06:53:36;;;;;;;24.65;11.95;;;;;;;;;;5093523;28;20031;-56
2021/01/16 06:56:04;;;;;;;30.42;13.00;;;;;;;;;;5094077;28;20372;-58
2021/01/16 06:58:36;;;;;;;27.95;12.48;;;;;;;;;;5093030;28;20027;-57
2021/01/16 07:01:01;;;;;;;25.70;12.13;;;;;;;;;;5088477;28;20089;-57
2021/01/16 07:03:27;;;;;;;22.17;11.00;;;;;;;;;;5072485;28;20475;-56
2021/01/16 07:05:56;;;;;;;14.95;8.57;;;;;;;;;;5077708;28;20629;-58
2021/01/16 07:08:22;;;;;;;27.02;11.75;;;;;;;;;;5074309;28;20060;-57
2021/01/16 07:10:48;;;;;;;23.42;11.05;;;;;;;;;;5076979;28;20035;-58
2021/01/16 07:13:13;;;;;;;21.83;10.60;;;;;;;;;;5075392;28;20123;-59
2021/01/16 07:15:38;;;;;;;23.37;11.47;;;;;;;;;;5075323;28;20050;-57
2021/01/16 07:18:04;;;;;;;26.77;10.67;;;;;;;;;;5073431;28;20028;-57
2021/01/16 07:20:29;;;;;;;18.63;9.47;;;;;;;;;;5075570;28;20025;-58
2021/01/16 07:22:55;;;;;;;22.55;10.85;;;;;;;;;;5075881;28;20036;-57
2021/01/16 07:25:21;;;;;;;23.50;10.03;;;;;;;;;;5075515;28;20491;-58
2021/01/16 07:27:46;;;;;;;22.58;9.98;;;;;;;;;;5074960;28;20082;-58
2021/01/16 07:30:13;;;;;;;20.27;10.50;;;;;;;;;;5056716;28;20411;-57
2021/01/16 07:32:40;;;;;;;19.38;9.40;;;;;;;;;;5076130;28;20033;-57
2021/01/16 07:35:09;;;;;;;19.48;9.77;;;;;;;;;;5073091;28;20064;-58
2021/01/16 07:37:35;;;;;;;21.58;10.65;;;;;;;;;;5074261;28;20120;-58
2021/01/16 07:40:00;;;;;;;22.70;11.37;;;;;;;;;;5073035;28;20479;-58
2021/01/16 07:42:26;;;;;;;21.90;10.53;;;;;;;;;;5075145;28;20562;-56
2021/01/16 07:45:05;;;;;;;19.02;10.38;;;;;;;;;;5072861;28;20081;-58
2021/01/16 07:47:37;;;;;;;19.48;9.63;;;;;;;;;;5086025;28;20126;-56
2021/01/16 07:50:05;;;;;;;16.70;8.57;;;;;;;;;;5091403;28;20463;-58
2021/01/16 07:52:30;;;;;;;21.65;9.57;;;;;;;;;;5077239;28;20090;-57
2021/01/16 07:55:06;;;;;;;17.97;7.33;;;;;;;;;;5071519;28;20549;-58
2021/01/16 07:57:33;;;;;;;19.13;9.20;;;;;;;;;;5086849;28;20511;-57
2021/01/16 07:59:58;;;;;;;;;;;;;;;;;;5093143;28;20028;-57
2021/01/16 08:02:27;;;;;;;19.50;9.73;;;;;;;;;;5085388;28;19918;-57
2021/01/16 08:05:05;;;;;;;22.60;10.10;;;;;;;;;;5090796;28;20074;-56
2021/01/16 08:07:51;;;;;;;21.17;10.15;;;;;;;;;;5074392;28;20047;-58
2021/01/16 08:10:19;;;;;;;20.15;9.63;;;;;;;;;;5052548;28;20080;-57
2021/01/16 08:12:47;;;;;;;23.55;9.10;;;;;;;;;;5073476;28;20066;-56
2021/01/16 08:15:15;;;;;;;21.67;9.27;;;;;;;;;;5073418;28;20063;-56
2021/01/16 08:17:42;;;;;;;22.65;9.88;;;;;;;;;;5075349;28;20448;-59
2021/01/16 08:20:07;;;;;;;;;;;;;;;;;;5073251;28;20477;-56
2021/01/16 08:22:42;;;;;;;23.00;9.50;;;;;;;;;;5076270;28;19920;-56
2021/01/16 08:25:12;;;;;;;20.65;9.57;;;;;;;;;;5071952;28;20116;-56
2021/01/16 08:27:38;;;;;;;19.58;9.32;;;;;;;;;;5062982;28;20024;-57
2021/01/16 08:30:11;;;;;;;24.75;10.75;;;;;;;;;;5082644;28;20494;-57
2021/01/16 08:32:55;;;;;;;22.52;10.15;;;;;;;;;;5081649;28;20028;-56
2021/01/16 08:35:28;;;;;;;21.83;9.52;;;;;;;;;;5082986;28;20028;-58
2021/01/16 08:37:54;;;;;;;23.38;10.20;;;;;;;;;;5081342;28;20086;-57
2021/01/16 08:40:33;;;;;;;20.30;9.18;;;;;;;;;;5080888;28;20032;-56
2021/01/16 08:42:59;;;;;;;21.88;10.32;;;;;;;;;;5081363;28;20036;-58
2021/01/16 08:45:24;;;;;;;20.73;9.73;;;;;;;;;;5079553;28;20027;-56
2021/01/16 08:47:54;;;;;;;24.63;11.33;;;;;;;;;;5080690;28;20088;-57
2021/01/16 08:50:19;;;;;;;23.13;10.88;;;;;;;;;;5090963;28;20051;-57
2021/01/16 08:52:45;;;;;;;23.67;10.37;;;;;;;;;;5091467;28;20474;-56
2021/01/16 08:55:10;;;;;;;35.00;11.43;;;;;;;;;;5092013;28;20111;-59
2021/01/16 08:57:37;;;;;;;22.00;9.60;;;;;;;;;;5091324;28;20481;-60
2021/01/16 09:00:32;;;;;;;20.92;10.00;;;;;;;;;;5090072;28;20032;-58
2021/01/16 09:03:05;;;;;;;22.63;12.13;;;;;;;;;;5060282;28;20040;-56
2021/01/16 09:05:32;;;;;;;26.58;10.60;;;;;;;;;;5070654;28;20153;-58
2021/01/16 09:07:58;;;;;;;23.85;11.90;;;;;;;;;;5082198;28;20082;-59
2021/01/16 09:10:24;;;;;;;21.17;10.83;;;;;;;;;;5086583;28;20025;-59
2021/01/16 09:12:50;;;;;;;24.95;11.60;;;;;;;;;;5085495;28;20373;-57
2021/01/16 09:15:39;;;;;;;24.85;12.45;;;;;;;;;;5099539;28;20081;-58
2021/01/16 09:18:06;;;;;;;23.55;11.23;;;;;;;;;;5092878;28;20034;-55
2021/01/16 09:20:32;;;;;;;24.73;12.90;;;;;;;;;;5084151;28;20031;-56
2021/01/16 09:22:57;;;;;;;30.42;13.13;;;;;;;;;;5082651;28;20048;-58
2021/01/16 09:25:24;;;;;;;28.13;12.97;;;;;;;;;;5076402;28;20468;-58
2021/01/16 09:27:50;;;;;;;27.92;12.82;;;;;;;;;;5073895;28;20496;-58
2021/01/16 09:30:25;;;;;;;25.45;13.02;;;;;;;;;;5076221;28;20032;-57
2021/01/16 09:32:51;;;;;;;28.23;13.98;;;;;;;;;;5074421;28;20032;-59
2021/01/16 09:35:36;;;;;;;27.17;13.50;;;;;;;;;;5076003;28;20107;-59
2021/01/16 09:38:01;;;;;;;27.30;13.35;;;;;;;;;;5075334;28;20024;-57
2021/01/16 09:40:33;;;;;;;28.75;12.18;;;;;;;;;;5075022;28;20035;-58
2021/01/16 09:42:59;;;;;;;29.48;13.10;;;;;;;;;;5073406;28;20545;-58
2021/01/16 09:45:44;;;;;;;25.07;12.53;;;;;;;;;;5073862;28;20067;-57
2021/01/16 09:48:29;;;;;;;29.02;12.73;;;;;;;;;;5074878;28;20115;-58
2021/01/16 09:50:55;;;;;;;26.38;13.38;;;;;;;;;;5074473;28;20020;-58
2021/01/16 09:53:21;;;;;;;26.63;13.75;;;;;;;;;;5074800;28;20120;-58
2021/01/16 09:55:46;;;;;;;33.07;15.30;;;;;;;;;;5074260;28;20430;-56
2021/01/16 09:58:28;;;;;;;30.60;15.10;;;;;;;;;;5074983;28;20288;-57
2021/01/16 10:00:54;;;;;;;33.13;14.70;;;;;;;;;;5072710;28;20498;-58
2021/01/16 10:03:31;;;;;;;25.25;13.07;;;;;;;;;;5074615;28;20389;-58
2021/01/16 10:06:03;;;;;;;26.85;13.23;;;;;;;;;;5072693;28;20479;-58
2021/01/16 10:08:28;;;;;;;27.20;13.88;;;;;;;;;;5073481;28;20452;-56
2021/01/16 10:10:54;;;;;;;28.57;14.00;;;;;;;;;;5072864;28;20028;-57
2021/01/16 10:13:36;;;;;;;34.33;14.43;;;;;;;;;;5074821;28;20116;-57
2021/01/16 10:16:03;;;;;;;28.35;13.85;;;;;;;;;;5073812;28;20052;-58
2021/01/16 10:18:30;;;;;;;27.27;13.50;;;;;;;;;;5074984;28;20032;-58
2021/01/16 10:21:06;;;;;;;31.45;13.50;;;;;;;;;;5056018;28;20028;-58
2021/01/16 10:23:33;;;;;;;28.77;14.18;;;;;;;;;;5074450;28;20127;-57
2021/01/16 10:25:58;;;;;;;;;;;;;;;;;;5073540;28;20031;-58
2021/01/16 10:28:30;;;;;;;31.80;14.03;;;;;;;;;;5074743;28;19908;-56
2021/01/16 10:30:58;;;;;;;33.63;15.85;;;;;;;;;;5073954;28;20086;-59
2021/01/16 10:33:24;;;;;;;29.27;12.30;;;;;;;;;;5073035;28;20468;-56
2021/01/16 10:35:51;;;;;;;30.77;14.50;;;;;;;;;;5073481;28;20039;-57
2021/01/16 10:38:16;;;;;;;;;;;;;;;;;;5072812;28;20274;-56
2021/01/16 10:40:49;;;;;;;24.77;11.73;;;;;;;;;;5073160;28;19912;-57
2021/01/16 10:43:14;;;;;;;25.88;11.77;;;;;;;;;;5073643;28;20370;-58
2021/01/16 10:45:59;;;;;;;24.77;11.87;;;;;;;;;;5055932;28;20039;-56
2021/01/16 10:48:31;;;;;;;25.27;12.23;;;;;;;;;;5073447;28;20077;-59
2021/01/16 10:50:57;;;;;;;23.52;12.18;;;;;;;;;;5073184;28;20028;-58
2021/01/16 10:53:33;;;;;;;23.80;11.25;;;;;;;;;;5073575;28;20033;-58
2021/01/16 10:56:06;;;;;;;22.58;10.45;;;;;;;;;;5071805;28;20029;-58
2021/01/16 10:58:32;;;;;;;25.10;11.38;;;;;;;;;;5072373;28;20469;-56
2021/01/16 11:00:58;;;;;;;28.13;12.07;;;;;;;;;;5072818;28;20036;-57
2021/01/16 11:03:31;;;;;;;27.45;12.73;;;;;;;;;;5073472;28;20068;-56
2021/01/16 11:06:04;;;;;;;27.20;12.20;;;;;;;;;;5073006;28;20028;-56
2021/01/16 11:08:31;;;;;;;20.63;10.93;;;;;;;;;;5073800;28;20052;-58
2021/01/16 11:10:56;;;;;;;20.83;10.73;;;;;;;;;;5073004;28;20108;-56
2021/01/16 11:13:28;;;;;;;25.00;11.73;;;;;;;;;;5073546;28;20688;-55
2021/01/16 11:15:55;;;;;;;24.77;11.75;;;;;;;;;;5072468;28;20480;-57
2021/01/16 11:18:27;;;;;;;26.38;10.73;;;;;;;;;;5073295;28;20077;-58
2021/01/16 11:20:57;;;;;;;22.17;9.90;;;;;;;;;;5072731;28;20074;-58
2021/01/16 11:23:29;;;;;;;36.72;11.77;;;;;;;;;;5072772;28;20036;-57
2021/01/16 11:25:55;;;;;;;19.55;9.90;;;;;;;;;;5072521;28;20040;-58
2021/01/16 11:28:25;;;;;;;23.92;11.25;;;;;;;;;;5072799;28;20034;-58
2021/01/16 11:31:07;;;;;;;16.40;8.32;;;;;;;;;;5071137;28;20102;-56
2021/01/16 11:33:33;;;;;;;20.10;10.55;;;;;;;;;;5072982;28;20098;-58
2021/01/16 11:36:04;;;;;;;18.27;8.50;;;;;;;;;;5072389;28;20020;-57
2021/01/16 11:38:37;;;;;;;18.00;9.18;;;;;;;;;;5071778;28;20021;-56
2021/01/16 11:41:03;;;;;;;19.50;8.93;;;;;;;;;;5071990;28;20472;-58
2021/01/16 11:43:29;;;;;;;19.37;9.63;;;;;;;;;;5072531;28;20078;-58
2021/01/16 11:46:01;;;;;;;18.27;8.95;;;;;;;;;;5070825;28;20283;-57
2021/01/16 11:48:28;;;;;;;17.55;7.65;;;;;;;;;;5072941;28;20028;-57
2021/01/16 11:50:54;;;;;;;17.33;7.80;;;;;;;;;;5072004;28;20111;-58
2021/01/16 11:53:19;;;;;;;17.87;8.70;;;;;;;;;;5074021;28;20151;-58
2021/01/16 11:55:45;;;;;;;23.93;11.23;;;;;;;;;;5072569;28;20028;-57
2021/01/16 11:58:10;;;;;;;26.27;10.23;;;;;;;;;;5070914;28;20029;-57
2021/01/16 12:00:36;;;;;;;18.10;7.30;;;;;;;;;;5072656;28;20032;-57
2021/01/16 12:03:01;;;;;;;15.20;7.43;;;;;;;;;;5071631;28;20044;-56
2021/01/16 12:05:26;;;;;;;17.10;8.40;;;;;;;;;;5071366;28;20049;-58
2021/01/16 12:07:53;;;;;;;18.47;8.30;;;;;;;;;;5071650;28;20066;-59
2021/01/16 12:10:22;;;;;;;17.83;7.57;;;;;;;;;;5071318;28;20111;-57
2021/01/16 12:12:48;;;;;;;22.48;8.10;;;;;;;;;;5072445;28;20041;-59
2021/01/16 12:15:19;;;;;;;20.30;8.32;;;;;;;;;;5072205;28;20032;-57
2021/01/16 12:17:45;;;;;;;12.35;6.28;;;;;;;;;;5072370;28;20060;-57
2021/01/16 12:20:12;;;;;;;19.08;8.65;;;;;;;;;;5070028;28;20028;-57
2021/01/16 12:22:38;;;;;;;17.30;8.38;;;;;;;;;;5071941;28;20053;-56
2021/01/16 12:25:06;;;;;;;16.60;8.00;;;;;;;;;;5071901;28;20119;-58
2021/01/16 12:27:31;;;;;;;19.70;7.90;;;;;;;;;;5072294;28;20113;-59
2021/01/16 12:29:56;;;;;;;18.10;8.07;;;;;;;;;;5071877;28;20365;-56
2021/01/16 12:32:22;;;;;;;15.43;8.37;;;;;;;;;;5071245;28;20426;-58
2021/01/16 12:34:55;;;;;;;15.77;6.70;;;;;;;;;;5073325;28;20407;-56
2021/01/16 12:37:30;;;;;;;14.82;7.57;;;;;;;;;;5072188;28;20536;-57
2021/01/16 12:39:59;;;;;;;17.20;7.10;;;;;;;;;;5071372;28;20032;-59
2021/01/16 12:42:25;;;;;;;15.70;7.90;;;;;;;;;;5070905;28;20094;-58
2021/01/16 12:44:51;;;;;;;16.60;7.53;;;;;;;;;;5072941;28;20029;-58
2021/01/16 12:47:20;;;;;;;15.27;7.50;;;;;;;;;;5072603;28;20033;-56
2021/01/16 12:49:50;;;;;;;13.80;6.50;;;;;;;;;;5071982;28;20035;-57
2021/01/16 12:52:22;;;;;;;14.85;6.68;;;;;;;;;;5077276;28;20036;-56
2021/01/16 12:55:08;;;;;;;17.02;7.75;;;;;;;;;;5078030;28;20029;-57
2021/01/16 12:57:39;;;;;;;17.35;8.07;;;;;;;;;;5075408;28;20121;-58
2021/01/16 13:00:06;;;;;;;16.55;7.78;;;;;;;;;;5075670;28;20028;-58
2021/01/16 13:02:32;;;;;;;13.23;6.72;;;;;;;;;;5075749;28;20111;-59
2021/01/16 13:04:58;;;;;;;16.20;7.33;;;;;;;;;;5075283;28;20068;-57
2021/01/16 13:07:28;;;;;;;15.85;7.53;;;;;;;;;;5074721;28;20043;-58
2021/01/16 13:09:54;;;;;;;15.95;8.30;;;;;;;;;;5075826;28;20031;-58
2021/01/16 13:12:20;;;;;;;15.25;7.32;;;;;;;;;;5075594;28;20160;-57
2021/01/16 13:14:54;;;;;;;16.35;8.05;;;;;;;;;;5075738;28;20042;-57
2021/01/16 13:17:23;;;;;;;14.07;7.47;;;;;;;;;;5074091;28;20480;-57
2021/01/16 13:19:51;;;;;;;13.00;6.50;;;;;;;;;;5075490;28;20384;-57
2021/01/16 13:22:18;;;;;;;13.32;5.90;;;;;;;;;;5073686;28;20040;-59
2021/01/16 13:24:44;;;;;;;13.75;6.38;;;;;;;;;;5075602;28;20036;-58
2021/01/16 13:27:20;;;;;;;11.23;5.50;;;;;;;;;;5074891;28;20131;-56
2021/01/16 13:29:48;;;;;;;15.85;7.25;;;;;;;;;;5075519;28;20097;-58
2021/01/16 13:32:17;;;;;;;12.30;5.03;;;;;;;;;;5073789;28;20487;-58
2021/01/16 13:34:43;;;;;;;12.15;5.63;;;;;;;;;;5074118;28;20112;-58
2021/01/16 13:37:14;;;;;;;11.13;5.57;;;;;;;;;;5074597;28;20056;-58
2021/01/16 13:39:39;;;;;;;14.25;6.85;;;;;;;;;;5074237;28;20440;-57
2021/01/16 13:42:05;;;;;;;13.70;6.10;;;;;;;;;;5073389;28;20054;-57
2021/01/16 13:44:31;;;;;;;13.57;6.97;;;;;;;;;;5084416;28;20056;-59
2021/01/16 13:46:56;;;;;;;14.18;6.82;;;;;;;;;;5082755;28;20112;-58
2021/01/16 13:49:26;;;;;;;13.30;5.80;;;;;;;;;;5074999;28;20337;-58
2021/01/16 13:52:01;;;;;;;13.98;6.63;;;;;;;;;;5056899;28;20157;-57
2021/01/16 13:54:31;;;;;;;13.02;6.75;;;;;;;;;;5073589;28;20032;-58
2021/01/16 13:56:56;;;;;;;13.18;6.07;;;;;;;;;;5074981;28;20468;-58
2021/01/16 13:59:25;;;;;;;14.30;6.70;;;;;;;;;;5074592;28;20051;-57
2021/01/16 14:01:52;;;;;;;14.13;6.25;;;;;;;;;;5073655;28;20418;-58
2021/01/16 14:04:17;;;;;;;17.90;6.65;;;;;;;;;;5074412;28;20079;-57
2021/01/16 14:07:03;;;;;;;13.13;6.20;;;;;;;;;;5093218;28;20450;-58
2021/01/16 14:09:29;;;;;;;14.52;6.10;;;;;;;;;;5093214;28;20040;-57
2021/01/16 14:12:05;;;;;;;13.40;7.05;;;;;;;;;;5095028;28;20045;-57
2021/01/16 14:14:35;;;;;;;13.90;7.28;;;;;;;;;;5094760;28;20032;-58
2021/01/16 14:17:10;;;;;;;12.95;6.45;;;;;;;;;;5094152;28;20020;-57
2021/01/16 14:19:35;;;;;;;18.75;6.75;;;;;;;;;;5094845;28;20111;-58
2021/01/16 14:22:01;;;;;;;11.95;6.13;;;;;;;;;;5094339;28;20112;-54
2021/01/16 14:24:26;;;;;;;13.80;6.33;;;;;;;;;;5093609;28;20028;-58
2021/01/16 14:26:55;;;;;;;18.13;7.40;;;;;;;;;;5094980;28;20138;-59